Time;durP1;ratioP1;P1;durP2;ratioP2;P2;SDS_P1;SDS_P2;PMS_P1;PMS_P2;Temp;Humidity;BMP_temperature;BMP_pressure;BME280_temperature;BME280_humidity;BME280_pressure;Samples;Min_cycle;Max_cycle;Signal;HPM_P1;HPM_P2
2021/05/23 00:01:39;;;;;;;0.00;0.00;;;;;;;;;;5061121;28;20191;-66
2021/05/23 00:04:05;;;;;;;0.43;0.43;;;;;;;;;;5062048;28;20697;-65
2021/05/23 00:06:32;;;;;;;1.90;1.83;;;;;;;;;;5060486;28;20167;-66
2021/05/23 00:09:00;;;;;;;5.50;0.70;;;;;;;;;;5040408;28;20156;-67
2021/05/23 00:11:26;;;;;;;0.00;0.00;;;;;;;;;;5040437;28;20171;-67
2021/05/23 00:13:53;;;;;;;6.80;1.37;;;;;;;;;;5039032;28;20163;-67
2021/05/23 00:16:26;;;;;;;7.47;0.93;;;;;;;;;;5039059;28;20179;-66
2021/05/23 00:18:54;;;;;;;0.00;0.00;;;;;;;;;;5040823;28;20164;-66
2021/05/23 00:21:22;;;;;;;8.03;0.40;;;;;;;;;;5040272;28;20583;-66
2021/05/23 00:23:49;;;;;;;6.53;1.90;;;;;;;;;;5040385;28;20275;-66
2021/05/23 00:26:15;;;;;;;0.30;0.30;;;;;;;;;;5040711;28;20598;-66
2021/05/23 00:28:42;;;;;;;0.87;0.30;;;;;;;;;;5038694;28;20210;-66
2021/05/23 00:31:09;;;;;;;1.00;0.17;;;;;;;;;;5039762;28;20168;-66
2021/05/23 00:33:35;;;;;;;9.90;0.70;;;;;;;;;;5039493;28;20180;-66
2021/05/23 00:36:02;;;;;;;11.53;3.70;;;;;;;;;;5048948;28;20176;-66
2021/05/23 00:38:29;;;;;;;2.93;2.73;;;;;;;;;;5060817;28;20194;-66
2021/05/23 00:40:55;;;;;;;8.80;1.97;;;;;;;;;;5060581;28;20977;-66
2021/05/23 00:43:22;;;;;;;0.00;0.00;;;;;;;;;;5060059;28;20611;-66
2021/05/23 00:45:50;;;;;;;0.00;0.00;;;;;;;;;;5060592;28;20178;-66
2021/05/23 00:48:17;;;;;;;0.00;0.00;;;;;;;;;;5060998;28;20879;-66
2021/05/23 00:50:45;;;;;;;2.30;0.90;;;;;;;;;;5060613;28;20235;-66
2021/05/23 00:53:12;;;;;;;0.00;0.00;;;;;;;;;;5060488;28;20834;-66
2021/05/23 00:55:39;;;;;;;7.63;1.27;;;;;;;;;;5060506;28;20218;-66
2021/05/23 00:58:07;;;;;;;7.33;5.27;;;;;;;;;;5060149;28;20175;-67
2021/05/23 01:00:34;;;;;;;0.47;0.33;;;;;;;;;;5060389;28;20179;-66
2021/05/23 01:03:01;;;;;;;1.10;0.20;;;;;;;;;;5060194;28;20198;-67
2021/05/23 01:05:28;;;;;;;0.00;0.00;;;;;;;;;;5059871;28;20179;-67
2021/05/23 01:07:55;;;;;;;0.00;0.00;;;;;;;;;;5061475;28;20696;-66
2021/05/23 01:10:26;;;;;;;0.00;0.00;;;;;;;;;;5062907;28;20174;-66
2021/05/23 01:13:01;;;;;;;1.10;0.97;;;;;;;;;;5062332;28;20174;-66
2021/05/23 01:15:32;;;;;;;1.27;0.30;;;;;;;;;;5042168;28;21089;-66
2021/05/23 01:18:09;;;;;;;1.30;0.23;;;;;;;;;;5059955;28;20179;-66
2021/05/23 01:20:41;;;;;;;1.43;1.17;;;;;;;;;;5060079;28;20236;-66
2021/05/23 01:23:20;;;;;;;0.87;0.87;;;;;;;;;;5056952;28;20246;-62
2021/05/23 01:25:48;;;;;;;2.00;0.87;;;;;;;;;;5054499;28;20171;-65
2021/05/23 01:28:18;;;;;;;0.00;0.00;;;;;;;;;;5052721;28;20268;-66
2021/05/23 01:30:46;;;;;;;0.70;0.70;;;;;;;;;;5058347;28;20316;-66
2021/05/23 01:33:23;;;;;;;0.50;0.50;;;;;;;;;;5056437;28;20190;-66
2021/05/23 01:35:56;;;;;;;14.00;0.77;;;;;;;;;;5050800;28;20285;-66
2021/05/23 01:38:23;;;;;;;0.10;0.10;;;;;;;;;;5057380;28;20179;-66
2021/05/23 01:40:50;;;;;;;1.20;1.10;;;;;;;;;;5053822;28;20273;-66
2021/05/23 01:43:19;;;;;;;4.27;0.67;;;;;;;;;;5056303;28;20218;-64
2021/05/23 01:45:46;;;;;;;0.90;0.90;;;;;;;;;;5058820;28;20253;-65
2021/05/23 01:48:12;;;;;;;2.63;0.63;;;;;;;;;;5043429;28;20920;-66
2021/05/23 01:50:42;;;;;;;0.20;0.20;;;;;;;;;;5051858;28;20182;-65
2021/05/23 01:53:10;;;;;;;5.40;1.50;;;;;;;;;;5052750;28;20189;-66
2021/05/23 01:55:37;;;;;;;0.20;0.20;;;;;;;;;;5056307;28;20713;-66
2021/05/23 01:58:04;;;;;;;5.90;3.83;;;;;;;;;;5058568;28;20175;-66
2021/05/23 02:00:32;;;;;;;0.00;0.00;;;;;;;;;;5050643;28;20190;-65
2021/05/23 02:02:59;;;;;;;2.53;2.43;;;;;;;;;;5057816;28;20215;-65
2021/05/23 02:05:27;;;;;;;0.40;0.40;;;;;;;;;;5050442;28;20982;-65
2021/05/23 02:07:58;;;;;;;0.00;0.00;;;;;;;;;;5051360;28;20199;-65
2021/05/23 02:10:25;;;;;;;0.00;0.00;;;;;;;;;;5052219;28;20190;-65
2021/05/23 02:12:55;;;;;;;8.50;0.97;;;;;;;;;;5058433;28;20265;-66
2021/05/23 02:15:22;;;;;;;0.20;0.20;;;;;;;;;;5058664;28;20194;-65
2021/05/23 02:17:48;;;;;;;0.47;0.13;;;;;;;;;;5056839;28;20838;-65
2021/05/23 02:20:19;;;;;;;0.57;0.50;;;;;;;;;;5057130;28;20720;-65
2021/05/23 02:22:47;;;;;;;1.47;0.60;;;;;;;;;;5055242;28;20195;-65
2021/05/23 02:25:15;;;;;;;0.67;0.67;;;;;;;;;;5056374;28;20171;-65
2021/05/23 02:27:45;;;;;;;0.80;0.80;;;;;;;;;;5055273;28;20187;-66
2021/05/23 02:30:14;;;;;;;3.57;1.53;;;;;;;;;;5055927;28;20182;-65
2021/05/23 02:32:43;;;;;;;0.10;0.10;;;;;;;;;;5057881;28;20187;-66
2021/05/23 02:35:10;;;;;;;16.23;0.93;;;;;;;;;;5037691;28;20231;-65
2021/05/23 02:37:37;;;;;;;6.70;1.60;;;;;;;;;;5041344;28;20192;-65
2021/05/23 02:40:08;;;;;;;1.77;1.07;;;;;;;;;;5041175;28;20184;-65
2021/05/23 02:42:35;;;;;;;5.73;1.50;;;;;;;;;;5034895;28;20204;-66
2021/05/23 02:45:02;;;;;;;0.00;0.00;;;;;;;;;;5038805;28;20175;-65
2021/05/23 02:47:29;;;;;;;0.87;0.60;;;;;;;;;;5040501;28;20194;-65
2021/05/23 02:49:55;;;;;;;0.00;0.00;;;;;;;;;;5035241;28;20195;-65
2021/05/23 02:52:22;;;;;;;1.17;1.17;;;;;;;;;;5040591;28;20190;-65
2021/05/23 02:54:49;;;;;;;0.10;0.10;;;;;;;;;;5040931;28;20210;-65
2021/05/23 02:57:16;;;;;;;9.93;3.30;;;;;;;;;;5040960;28;20300;-65
2021/05/23 02:59:43;;;;;;;0.00;0.00;;;;;;;;;;5031944;28;20368;-65
2021/05/23 03:02:10;;;;;;;0.17;0.17;;;;;;;;;;5033925;28;20211;-65
2021/05/23 03:04:37;;;;;;;0.37;0.37;;;;;;;;;;5029039;28;20317;-65
2021/05/23 03:07:05;;;;;;;0.20;0.20;;;;;;;;;;5030297;28;20179;-67
2021/05/23 03:09:31;;;;;;;4.10;1.03;;;;;;;;;;5035692;28;20183;-67
2021/05/23 03:11:58;;;;;;;0.47;0.47;;;;;;;;;;5035844;28;20187;-66
2021/05/23 03:14:25;;;;;;;0.10;0.10;;;;;;;;;;5039351;28;20692;-66
2021/05/23 03:16:51;;;;;;;8.70;0.87;;;;;;;;;;5040203;28;20172;-65
2021/05/23 03:19:18;;;;;;;0.00;0.00;;;;;;;;;;5038416;28;20211;-66
2021/05/23 03:21:45;;;;;;;0.53;0.20;;;;;;;;;;5029604;28;20258;-65
2021/05/23 03:24:11;;;;;;;0.00;0.00;;;;;;;;;;5033170;28;20196;-66
2021/05/23 03:26:38;;;;;;;0.20;0.20;;;;;;;;;;5028186;28;20185;-65
2021/05/23 03:29:07;;;;;;;1.23;0.90;;;;;;;;;;5031442;28;20221;-66
2021/05/23 03:31:33;;;;;;;0.00;0.00;;;;;;;;;;5039806;28;20190;-65
2021/05/23 03:34:00;;;;;;;0.67;0.60;;;;;;;;;;5035328;28;20223;-66
2021/05/23 03:36:29;;;;;;;4.00;1.80;;;;;;;;;;5050291;28;20193;-66
2021/05/23 03:38:55;;;;;;;13.57;1.20;;;;;;;;;;5054624;28;20186;-66
2021/05/23 03:41:22;;;;;;;0.50;0.50;;;;;;;;;;5052478;28;20193;-65
2021/05/23 03:43:48;;;;;;;0.00;0.00;;;;;;;;;;5058478;28;20211;-65
2021/05/23 03:46:15;;;;;;;15.67;1.77;;;;;;;;;;5058258;28;20211;-65
2021/05/23 03:48:41;;;;;;;0.20;0.20;;;;;;;;;;5055553;28;20298;-65
2021/05/23 03:51:08;;;;;;;0.40;0.23;;;;;;;;;;5056704;28;20277;-66
2021/05/23 03:53:34;;;;;;;2.83;0.67;;;;;;;;;;5054015;28;20172;-65
2021/05/23 03:56:01;;;;;;;1.00;0.50;;;;;;;;;;5055401;28;20298;-65
2021/05/23 03:58:28;;;;;;;1.13;0.37;;;;;;;;;;5059218;28;20210;-65
2021/05/23 04:00:54;;;;;;;30.03;1.10;;;;;;;;;;5054335;28;20220;-65
2021/05/23 04:03:23;;;;;;;1.60;1.30;;;;;;;;;;5055573;28;20204;-65
2021/05/23 04:05:50;;;;;;;3.80;2.13;;;;;;;;;;5057378;28;20493;-66
2021/05/23 04:08:16;;;;;;;0.00;0.00;;;;;;;;;;5054245;28;20179;-65
2021/05/23 04:10:51;;;;;;;6.83;0.60;;;;;;;;;;5052092;28;20186;-66
2021/05/23 04:13:20;;;;;;;0.20;0.20;;;;;;;;;;5054408;28;20193;-66
2021/05/23 04:15:47;;;;;;;3.20;2.20;;;;;;;;;;5047624;28;20243;-65
2021/05/23 04:18:13;;;;;;;1.13;0.17;;;;;;;;;;5061183;28;20176;-65
2021/05/23 04:20:40;;;;;;;7.33;1.07;;;;;;;;;;5055991;28;20186;-65
2021/05/23 04:23:06;;;;;;;0.93;0.73;;;;;;;;;;5049885;28;20203;-65
2021/05/23 04:25:33;;;;;;;6.13;1.00;;;;;;;;;;5051171;28;20726;-65
2021/05/23 04:28:01;;;;;;;1.47;0.93;;;;;;;;;;5049952;28;20195;-65
2021/05/23 04:30:28;;;;;;;0.10;0.10;;;;;;;;;;5057009;28;20211;-65
2021/05/23 04:32:55;;;;;;;0.30;0.30;;;;;;;;;;5054435;28;20218;-65
2021/05/23 04:35:23;;;;;;;0.07;0.07;;;;;;;;;;5050657;28;20231;-65
2021/05/23 04:37:50;;;;;;;2.10;0.30;;;;;;;;;;5054606;28;20191;-65
2021/05/23 04:40:17;;;;;;;1.50;1.40;;;;;;;;;;5057795;28;20252;-65
2021/05/23 04:42:43;;;;;;;0.20;0.20;;;;;;;;;;5058772;28;20203;-65
2021/05/23 04:45:10;;;;;;;0.47;0.40;;;;;;;;;;5057589;28;20193;-65
2021/05/23 04:47:37;;;;;;;25.27;0.73;;;;;;;;;;5060215;28;20159;-66
2021/05/23 04:50:05;;;;;;;1.70;0.90;;;;;;;;;;5054386;28;20187;-66
2021/05/23 04:52:32;;;;;;;0.47;0.30;;;;;;;;;;5055602;28;20226;-66
2021/05/23 04:54:58;;;;;;;0.60;0.60;;;;;;;;;;5052516;28;20187;-66
2021/05/23 04:57:25;;;;;;;2.23;0.73;;;;;;;;;;5047961;28;20183;-66
2021/05/23 04:59:52;;;;;;;0.20;0.20;;;;;;;;;;5054577;28;20712;-65
2021/05/23 05:02:20;;;;;;;2.00;0.80;;;;;;;;;;5049596;28;20270;-65
2021/05/23 05:04:47;;;;;;;14.43;6.23;;;;;;;;;;5049843;28;20171;-65
2021/05/23 05:07:13;;;;;;;1.33;1.00;;;;;;;;;;5054824;28;20175;-65
2021/05/23 05:09:40;;;;;;;3.20;1.07;;;;;;;;;;5057036;28;20185;-65
2021/05/23 05:12:07;;;;;;;2.93;2.73;;;;;;;;;;5053788;28;20222;-65
2021/05/23 05:14:34;;;;;;;0.00;0.00;;;;;;;;;;5056279;28;20264;-65
2021/05/23 05:17:01;;;;;;;2.07;0.40;;;;;;;;;;5057915;28;20214;-65
2021/05/23 05:19:28;;;;;;;0.20;0.20;;;;;;;;;;5059763;28;20202;-65
2021/05/23 05:21:54;;;;;;;0.97;0.60;;;;;;;;;;5056233;28;20178;-65
2021/05/23 05:24:21;;;;;;;0.00;0.00;;;;;;;;;;5056199;28;20210;-65
2021/05/23 05:26:48;;;;;;;6.17;2.97;;;;;;;;;;5051038;28;20630;-65
2021/05/23 05:29:14;;;;;;;0.90;0.27;;;;;;;;;;5051339;28;20175;-65
2021/05/23 05:31:41;;;;;;;0.00;0.00;;;;;;;;;;5057822;28;20565;-65
2021/05/23 05:34:07;;;;;;;1.37;0.43;;;;;;;;;;5055933;28;20222;-65
2021/05/23 05:36:34;;;;;;;5.20;0.80;;;;;;;;;;5053660;28;20929;-65
2021/05/23 05:39:00;;;;;;;2.77;1.60;;;;;;;;;;5057673;28;20171;-65
2021/05/23 05:41:27;;;;;;;7.47;1.60;;;;;;;;;;5058038;28;20194;-65
2021/05/23 05:43:53;;;;;;;1.50;0.63;;;;;;;;;;5057434;28;20222;-66
2021/05/23 05:46:20;;;;;;;1.70;0.73;;;;;;;;;;5059132;28;20179;-66
2021/05/23 05:48:47;;;;;;;0.20;0.10;;;;;;;;;;5058334;28;20191;-66
2021/05/23 05:51:13;;;;;;;0.00;0.00;;;;;;;;;;5060564;28;20236;-66
2021/05/23 05:53:40;;;;;;;1.07;0.63;;;;;;;;;;5062070;28;20175;-66
2021/05/23 05:56:07;;;;;;;0.97;0.53;;;;;;;;;;5052534;28;20187;-66
2021/05/23 05:58:34;;;;;;;2.00;0.93;;;;;;;;;;5056833;28;20795;-65
2021/05/23 06:01:00;;;;;;;25.67;2.17;;;;;;;;;;5053236;28;20186;-65
2021/05/23 06:03:27;;;;;;;0.10;0.10;;;;;;;;;;5057572;28;20245;-66
2021/05/23 06:05:54;;;;;;;0.00;0.00;;;;;;;;;;5057094;28;20178;-66
2021/05/23 06:08:21;;;;;;;13.73;1.60;;;;;;;;;;5052772;28;20512;-66
2021/05/23 06:10:48;;;;;;;0.00;0.00;;;;;;;;;;5062299;28;20217;-66
2021/05/23 06:13:15;;;;;;;27.57;2.77;;;;;;;;;;5057854;28;20214;-66
2021/05/23 06:15:41;;;;;;;1.70;0.70;;;;;;;;;;5056216;28;20187;-66
2021/05/23 06:18:08;;;;;;;0.97;0.97;;;;;;;;;;5060929;28;20175;-66
2021/05/23 06:20:35;;;;;;;0.00;0.00;;;;;;;;;;5061734;28;20203;-66
2021/05/23 06:23:01;;;;;;;0.57;0.30;;;;;;;;;;5051002;28;20199;-66
2021/05/23 06:25:28;;;;;;;1.50;0.73;;;;;;;;;;5059647;28;20414;-65
2021/05/23 06:27:54;;;;;;;3.17;0.67;;;;;;;;;;5058861;28;20186;-66
2021/05/23 06:30:21;;;;;;;3.70;0.40;;;;;;;;;;5056844;28;20256;-66
2021/05/23 06:32:48;;;;;;;0.10;0.10;;;;;;;;;;5058269;28;20191;-66
2021/05/23 06:35:17;;;;;;;0.20;0.20;;;;;;;;;;5052106;28;20215;-65
2021/05/23 06:37:45;;;;;;;12.13;3.10;;;;;;;;;;5051052;28;20179;-66
2021/05/23 06:40:12;;;;;;;0.00;0.00;;;;;;;;;;5052572;28;22122;-66
2021/05/23 06:42:38;;;;;;;0.27;0.13;;;;;;;;;;5054191;28;20902;-66
2021/05/23 06:45:05;;;;;;;7.17;1.33;;;;;;;;;;5053745;28;20268;-66
2021/05/23 06:47:32;;;;;;;2.90;1.60;;;;;;;;;;5052204;28;20184;-66
2021/05/23 06:49:58;;;;;;;21.33;4.47;;;;;;;;;;5050337;28;20351;-66
2021/05/23 06:52:26;;;;;;;0.30;0.20;;;;;;;;;;5048939;28;20180;-66
2021/05/23 06:54:53;;;;;;;10.60;1.87;;;;;;;;;;5057040;28;20829;-66
2021/05/23 06:57:19;;;;;;;3.03;0.83;;;;;;;;;;5053438;28;20256;-66
2021/05/23 06:59:46;;;;;;;2.17;1.40;;;;;;;;;;5048325;28;20183;-66
2021/05/23 07:02:12;;;;;;;0.20;0.20;;;;;;;;;;5050951;28;20211;-65
2021/05/23 07:04:39;;;;;;;0.30;0.17;;;;;;;;;;5051106;28;20234;-65
2021/05/23 07:07:06;;;;;;;1.60;0.50;;;;;;;;;;5060709;28;20199;-65
2021/05/23 07:09:32;;;;;;;0.30;0.30;;;;;;;;;;5059654;28;20240;-65
2021/05/23 07:11:59;;;;;;;0.13;0.10;;;;;;;;;;5060244;28;20179;-66
2021/05/23 07:14:25;;;;;;;6.23;0.93;;;;;;;;;;5058831;28;20196;-65
2021/05/23 07:16:52;;;;;;;0.50;0.40;;;;;;;;;;5051559;28;20221;-65
2021/05/23 07:19:18;;;;;;;0.13;0.13;;;;;;;;;;5051867;28;21046;-66
2021/05/23 07:21:45;;;;;;;0.00;0.00;;;;;;;;;;5050699;28;20193;-65
2021/05/23 07:24:11;;;;;;;0.47;0.47;;;;;;;;;;5052611;28;20199;-65
2021/05/23 07:26:38;;;;;;;0.00;0.00;;;;;;;;;;5059170;28;20911;-65
2021/05/23 07:29:06;;;;;;;0.00;0.00;;;;;;;;;;5059041;28;20914;-66
2021/05/23 07:31:33;;;;;;;0.20;0.20;;;;;;;;;;5051575;28;20203;-66
2021/05/23 07:33:59;;;;;;;0.60;0.60;;;;;;;;;;5048360;28;20215;-66
2021/05/23 07:36:26;;;;;;;1.33;0.83;;;;;;;;;;5049199;28;20197;-66
2021/05/23 07:38:54;;;;;;;0.37;0.37;;;;;;;;;;5053868;28;20892;-66
2021/05/23 07:41:21;;;;;;;6.57;1.80;;;;;;;;;;5052192;28;20187;-66
2021/05/23 07:43:47;;;;;;;0.30;0.30;;;;;;;;;;5057854;28;20230;-65
2021/05/23 07:46:14;;;;;;;1.30;0.87;;;;;;;;;;5051014;28;20262;-65
2021/05/23 07:48:41;;;;;;;0.00;0.00;;;;;;;;;;5051311;28;20195;-66
2021/05/23 07:51:07;;;;;;;11.33;1.17;;;;;;;;;;5050362;28;20203;-66
2021/05/23 07:53:34;;;;;;;0.10;0.10;;;;;;;;;;5051370;28;20187;-66
2021/05/23 07:56:00;;;;;;;0.00;0.00;;;;;;;;;;5056873;28;20731;-66
